Main page
METAR-TAF:

METAR-TAF

Airports :

Birmingham, England

Birmingham Airport

latitude: 52-27N, longitude: 001-44W, elevation: 99 m

Current weather observation

The report was made 18 minutes ago, at 23:50 UTC
Wind 8 kt from the South/Southwest
Temperature 7°C
Humidity 93%
Pressure 997 hPa
Visibility 10 km or more
Few clouds at a height of 3500 ft

METAR: EGBB 262350Z 20008KT 9999 FEW035 07/06 Q0997

Time: 00:08 (00:08 UTC)

Forecast

The report was made 1 hour and 14 minutes ago, at 22:54 UTC
Forecast valid from 27 at 00 UTC to 27 at 24 UTC
Wind 9 kt from the South/Southwest
Visibility 10 km or more
Few clouds at a height of 3500 ft
Temporary
from 27 at 04 UTC to 27 at 24 UTC
Visibility: 6000 m
rain, rain showers
Probability 30% :
Temporary
from 27 at 09 UTC to 27 at 18 UTC
Visibility: 3000 m
Broken clouds at a height of 1400 ft, Cumulonimbus.
heavy rain showers, small hail or snow pellets

TAF: EGBB 262254Z 2700/2724 21009KT 9999 FEW035 TEMPO 2704/2724 6000 RA SHRA PROB30 TEMPO 2709/2718 3000 +SHRAGS BKN014CB

Weather observations and forecasts of more than 4000 airports (METAR and TAF reports).

The available stations are represented by yellow and red dots on the map.

Hover mouse over dot to see the name of the station.

Then click to see weather observations and forecasts.

To change the map : click on the green buttons with a black cross to zoom in, on the green button with a dash to zoom out, or on the green arrows for adjacent maps.


METAR-TAF: